Latest Weather Observations for Scottsdale

IDT60801

Issued at 6:02 pm EST Saturday 27 August 2016 (issued every 30 minutes, with the page automatically refreshed every 10 minutes)

About weather observations | Map of weather stations | Latest weather observations for TAS | Other Formats
Station Details ID: 091219 Name: SCOTTSDALE (WEST MINSTONE ROAD) Lat: -41.17 Lon: 147.49 Height: 197.5 m
Data from the previous 72 hours. | See also: Recent months at Scottsdale
Date/Time
EST
Temp
°C
App
Temp
°C
Dew
Point
°C
Rel
Hum
%
Delta-T
°C
Wind Press
QNH
hPa
Press
MSL
hPa
Rain since
9am
mm
Dir  Spd
km/h
Gust
km/h
Spd
kts
Gust
kts
27/06:00pm 9.4 5.0 7.5 88 0.9 WNW 20 35 11 19 1012.1 - 0.4
27/05:30pm 9.6 4.5 7.5 87 1.0 W 24 39 13 21 1011.9 - 0.4
27/05:06pm 10.1 4.1 7.2 82 1.4 NW 28 48 15 26 1011.6 - 0.2
27/05:00pm 9.9 4.8 7.6 85 1.1 WNW 24 43 13 23 1011.7 - 0.2
27/04:30pm 9.8 4.2 7.3 84 1.2 WNW 26 43 14 23 1011.7 - 0.2
27/04:17pm 10.0 4.1 7.3 83 1.3 WNW 28 50 15 27 1011.7 - 0.2
27/04:00pm 10.6 5.3 6.8 77 1.8 WNW 24 41 13 22 1011.7 - 0.0
27/03:42pm 11.0 4.7 5.9 71 2.4 WNW 28 46 15 25 1011.8 - 0.0
27/03:30pm 11.3 5.9 6.2 71 2.4 WNW 24 39 13 21 1011.9 - 0.0
27/03:00pm 11.6 7.0 6.6 71 2.4 WNW 20 43 11 23 1012.2 1012.8 0.0
27/02:37pm 11.4 4.8 6.1 70 2.5 WNW 30 48 16 26 1012.3 - 0.0
27/02:30pm 11.3 4.3 6.2 71 2.4 WNW 32 48 17 26 1012.2 - 0.0
27/02:22pm 11.2 4.7 6.4 72 2.3 WNW 30 48 16 26 1012.3 - 0.0
27/02:00pm 11.4 5.3 6.4 71 2.4 WNW 28 44 15 24 1012.5 - 0.0
27/01:53pm 11.5 5.3 6.0 69 2.6 WNW 28 50 15 27 1012.5 - 0.0
27/01:30pm 11.9 5.3 6.2 68 2.7 W 30 44 16 24 1012.7 - 0.0
27/01:05pm 11.6 5.4 6.1 69 2.6 WNW 28 52 15 28 1012.9 - 0.0
27/01:00pm 12.0 6.4 7.1 72 2.4 WNW 26 43 14 23 1013.0 - 0.0
27/12:34pm 11.7 5.0 5.8 67 2.8 WNW 30 48 16 26 1013.2 - 0.0
27/12:30pm 11.9 6.1 6.2 68 2.7 WNW 26 44 14 24 1013.3 - 0.0
27/12:04pm 11.5 5.4 6.7 72 2.3 WNW 28 46 15 25 1013.7 - 0.0
27/12:00pm 11.6 6.3 6.8 72 2.3 WNW 24 37 13 20 1013.7 1014.2 0.0
27/11:30am 10.4 6.5 8.6 89 0.9 WNW 19 28 10 15 1014.3 - 0.0
27/11:00am 9.9 5.2 7.6 85 1.1 WNW 22 35 12 19 1014.7 - 0.0
27/10:30am 10.8 6.0 7.3 79 1.7 WNW 22 32 12 17 1014.8 - 0.0
27/10:00am 9.8 6.2 6.6 80 1.5 WNW 15 24 8 13 1015.1 - 0.0
27/09:30am 9.3 6.4 6.5 83 1.3 NW 11 22 6 12 1015.1 - 0.0
27/09:00am 8.9 6.0 6.6 85 1.1 NW 11 15 6 8 1015.3 1015.8 0.0
27/08:30am 8.3 4.9 6.1 86 1.0 W 13 20 7 11 1015.4 - 0.0
27/08:00am 8.0 5.7 5.8 86 1.0 WNW 7 11 4 6 1015.3 - 0.0
27/07:30am 7.4 4.8 5.9 90 0.7 W 9 13 5 7 1015.3 - 0.0
27/07:00am 7.2 4.6 5.9 91 0.6 W 9 13 5 7 1015.1 - 0.0
27/06:30am 6.4 3.7 5.5 94 0.4 WNW 9 11 5 6 1015.0 - 0.0
27/06:00am 6.2 3.8 5.3 94 0.4 NW 7 11 4 6 1014.8 1015.3 0.0
27/05:30am 7.3 4.6 5.8 90 0.7 W 9 15 5 8 1014.9 - 0.0
27/05:00am 7.2 4.2 5.9 91 0.6 W 11 17 6 9 1015.0 - 0.0
27/04:30am 7.1 4.1 5.8 91 0.6 W 11 17 6 9 1015.0 - 0.0
27/04:00am 6.5 3.4 5.6 94 0.4 WNW 11 15 6 8 1015.0 - 0.0
27/03:30am 6.5 3.4 5.6 94 0.4 WNW 11 15 6 8 1014.8 - 0.0
27/03:00am 6.8 4.1 5.7 93 0.5 NW 9 11 5 6 1014.8 1015.3 0.0
27/02:30am 7.4 5.7 5.9 90 0.7 WNW 4 7 2 4 1015.0 - 0.0
27/02:00am 7.5 5.2 5.7 88 0.8 WNW 7 11 4 6 1015.4 - 0.0
27/01:30am 7.4 5.1 5.6 88 0.8 W 7 11 4 6 1015.7 - 0.0
27/01:00am 7.4 5.1 5.6 88 0.8 NW 7 9 4 5 1015.8 - 0.0
27/12:30am 7.7 4.6 5.5 86 1.0 W 11 17 6 9 1015.8 - 0.0
27/12:00am 7.6 4.4 5.1 84 1.1 WSW 11 17 6 9 1016.0 1016.5 0.0
 
Date/Time
EST
Temp
°C
App
Temp
°C
Dew
Point
°C
Rel
Hum
%
Delta-T
°C
Wind Press
QNH
hPa
Press
MSL
hPa
Rain since
9am
mm
Dir  Spd
km/h
Gust
km/h
Spd
kts
Gust
kts
26/11:30pm 7.3 3.7 4.8 84 1.1 W 13 19 7 10 1016.0 - 0.0
26/11:00pm 6.9 2.8 4.4 84 1.1 WNW 15 19 8 10 1015.8 - 0.0
26/10:30pm 6.5 2.8 4.4 86 0.9 WNW 13 20 7 11 1015.9 - 0.0
26/10:00pm 6.2 2.9 4.8 91 0.6 NW 11 15 6 8 1015.8 - 0.0
26/09:30pm 6.2 3.0 5.3 94 0.4 NW 11 13 6 7 1015.8 - 0.0
26/09:00pm 6.5 3.7 5.1 91 0.6 NW 9 11 5 6 1015.7 1016.2 0.0
26/08:30pm 7.6 4.5 5.4 86 1.0 WNW 11 15 6 8 1015.4 - 0.0
26/08:00pm 7.3 4.6 5.5 88 0.8 W 9 13 5 7 1015.3 - 0.0
26/07:30pm 8.1 5.0 5.7 85 1.1 WNW 11 15 6 8 1015.3 - 0.0
26/07:00pm 8.5 4.7 5.7 82 1.3 W 15 22 8 12 1015.3 - 0.0
26/06:30pm 8.4 4.8 5.1 80 1.5 WNW 13 19 7 10 1014.8 - 0.0
26/06:00pm 9.0 5.0 4.8 75 1.9 WNW 15 22 8 12 1014.6 1015.1 0.0
26/05:30pm 9.6 4.8 4.7 71 2.2 WNW 19 26 10 14 1014.2 - 0.0
26/05:00pm 11.0 6.1 4.1 62 3.1 W 19 28 10 15 1014.1 - 0.0
26/04:30pm 10.9 6.5 4.5 64 2.9 W 17 22 9 12 1013.8 - 0.0
26/04:00pm 11.0 7.3 4.4 64 3.0 WNW 13 20 7 11 1013.7 - 0.0
26/03:30pm 11.5 6.7 4.5 62 3.2 NW 19 26 10 14 1013.8 - 0.0
26/03:00pm 11.6 7.2 4.9 63 3.1 W 17 30 9 16 1013.7 1014.2 0.0
26/02:30pm 11.4 6.4 3.8 59 3.4 WNW 19 32 10 17 1013.7 - 0.0
26/02:00pm 11.4 6.2 3.6 58 3.5 W 20 37 11 20 1013.9 - 0.0
26/01:30pm 11.7 5.6 2.9 55 3.9 W 24 35 13 19 1013.6 - 0.0
26/01:00pm 11.5 5.0 2.9 55 3.8 W 26 39 14 21 1013.7 - 0.0
26/12:30pm 11.0 4.9 2.5 56 3.7 W 24 32 13 17 1014.2 - 0.0
26/12:00pm 11.0 5.9 3.1 58 3.5 WNW 19 28 10 15 1014.7 1015.2 0.0
26/11:30am 10.1 4.7 2.7 60 3.2 WNW 20 35 11 19 1014.9 - 0.0
26/11:00am 9.5 4.1 2.5 61 3.0 W 20 32 11 17 1015.2 - 0.0
26/10:30am 9.0 3.7 3.0 66 2.6 W 20 32 11 17 1015.3 - 0.0
26/10:00am 8.8 5.2 2.7 65 2.6 NW 11 20 6 11 1015.4 - 0.0
26/09:30am 7.2 4.8 5.2 87 0.9 W 7 11 4 6 1015.6 - 0.0
26/09:00am 5.8 3.0 1.9 76 1.6 WNW 6 7 3 4 1015.5 1016.0 0.2
26/08:30am 5.6 3.9 1.9 77 1.5 CALM 0 0 0 0 1015.5 - 0.2
26/08:00am 3.6 1.9 1.8 88 0.7 CALM 0 0 0 0 1015.5 - 0.2
26/07:30am 2.2 -1.0 0.6 89 0.6 SSE 7 9 4 5 1015.1 - 0.2
26/07:00am 0.7 - - - - E 6 7 3 4 1014.8 - 0.2
26/06:30am 1.2 -2.9 -0.4 89 0.6 S 11 15 6 8 1014.6 - 0.2
26/06:00am 1.9 -2.3 -0.6 83 0.9 S 11 11 6 6 1014.4 1014.9 0.2
26/05:30am 0.4 - - - - E 4 7 2 4 1014.2 - 0.2
26/05:00am 1.0 -1.5 -0.7 88 0.6 ENE 2 7 1 4 1014.2 - 0.2
26/04:30am 0.8 -1.9 0.3 96 0.2 SE 4 7 2 4 1013.8 - 0.2
26/04:00am 1.1 -0.8 0.6 96 0.2 CALM 0 6 0 3 1013.5 - 0.2
26/03:30am 2.6 0.2 -0.1 82 1.0 E 2 6 1 3 1013.4 - 0.2
26/03:00am 1.5 -1.7 1.0 96 0.2 NE 7 9 4 5 1013.4 1013.9 0.2
26/02:30am 1.4 -0.5 0.6 94 0.3 CALM 0 0 0 0 1013.5 - 0.2
26/02:00am 2.9 1.2 1.6 91 0.5 CALM 0 0 0 0 1013.7 - 0.2
26/01:30am 3.1 1.4 1.8 91 0.5 CALM 0 0 0 0 1013.7 - 0.2
26/01:00am 2.9 0.4 1.4 90 0.6 SSE 4 6 2 3 1013.7 - 0.2
26/12:30am 2.6 0.5 1.6 93 0.4 SW 2 6 1 3 1013.6 - 0.2
26/12:00am 4.2 1.8 2.2 87 0.8 S 4 7 2 4 1013.5 1014.0 0.2
 
Date/Time
EST
Temp
°C
App
Temp
°C
Dew
Point
°C
Rel
Hum
%
Delta-T
°C
Wind Press
QNH
hPa
Press
MSL
hPa
Rain since
9am
mm
Dir  Spd
km/h
Gust
km/h
Spd
kts
Gust
kts
25/11:30pm 4.3 1.0 2.6 89 0.7 S 9 11 5 6 1013.4 - 0.2
25/11:00pm 5.6 2.9 2.4 80 1.3 S 6 9 3 5 1013.6 - 0.2
25/10:30pm 5.1 2.0 1.3 76 1.5 SE 7 9 4 5 1013.8 - 0.2
25/10:00pm 5.2 3.2 2.5 83 1.1 W 2 7 1 4 1013.7 - 0.2
25/09:30pm 6.1 4.5 2.7 79 1.4 CALM 0 0 0 0 1013.8 - 0.2
25/09:00pm 6.5 3.8 2.9 78 1.5 NNW 6 7 3 4 1013.7 1014.3 0.2
25/08:30pm 7.4 5.9 3.2 75 1.8 CALM 0 0 0 0 1013.4 - 0.2
25/08:00pm 7.8 6.3 2.9 71 2.1 CALM 0 7 0 4 1013.3 - 0.2
25/07:30pm 8.2 5.3 2.8 69 2.3 W 7 9 4 5 1013.1 - 0.2
25/07:00pm 8.9 5.9 2.3 63 2.8 W 7 11 4 6 1012.8 - 0.2
25/06:30pm 9.2 5.0 1.8 60 3.1 W 13 17 7 9 1012.4 - 0.2
25/06:00pm 8.5 5.5 1.8 63 2.8 SW 7 11 4 6 1012.0 1012.5 0.2
25/05:30pm 9.7 6.2 1.0 54 3.6 SW 9 11 5 6 1011.5 - 0.2
25/05:00pm 11.5 8.2 0.2 45 4.7 SSW 7 15 4 8 1011.2 - 0.2
25/04:30pm 11.7 7.1 -1.2 41 5.2 SSW 13 17 7 9 1011.0 - 0.2
25/04:00pm 12.0 6.5 -1.8 38 5.5 SSW 17 24 9 13 1010.8 - 0.2
25/03:30pm 12.3 6.4 -2.4 36 5.8 SSW 19 30 10 16 1010.6 - 0.2
25/03:00pm 12.7 6.9 -0.3 40 5.4 SSW 20 30 11 16 1010.5 1011.0 0.2
25/02:30pm 12.8 7.9 -0.5 40 5.5 SW 15 19 8 10 1010.3 - 0.2
25/02:00pm 12.6 8.1 -0.1 41 5.3 WSW 13 20 7 11 1010.0 - 0.2
25/01:30pm 12.3 6.5 -1.3 39 5.5 SW 19 24 10 13 1010.0 - 0.0
25/01:00pm 12.1 6.9 -0.2 42 5.1 WSW 17 26 9 14 1010.1 - 0.0
25/12:30pm 11.8 6.6 0.0 44 4.9 SW 17 24 9 13 1010.2 - 0.0
25/12:00pm 11.3 6.6 0.8 48 4.4 WSW 15 20 8 11 1010.3 1010.8 0.0
25/11:30am 11.0 5.9 0.7 49 4.3 WSW 17 24 9 13 1010.5 - 0.0
25/11:00am 10.7 6.7 0.6 49 4.2 WSW 11 20 6 11 1010.6 - 0.0
25/10:30am 9.9 5.5 0.4 51 3.9 SW 13 20 7 11 1010.5 - 0.0
25/10:00am 9.3 4.4 -0.4 50 3.9 SSW 15 22 8 12 1010.7 - 0.0
25/09:30am 8.7 4.6 -0.3 53 3.6 SSW 11 15 6 8 1010.4 - 0.0
25/09:00am 7.8 3.6 -0.6 55 3.3 SW 11 15 6 8 1010.1 1010.6 0.0
25/08:30am 7.3 3.1 -0.6 57 3.1 SE 11 15 6 8 1010.1 - 0.0
25/08:00am 5.8 2.2 0.8 70 2.0 SSE 9 13 5 7 1009.8 - 0.0
25/07:30am 4.4 -0.2 -1.3 66 2.1 S 13 22 7 12 1009.8 - 0.0
25/07:00am 4.0 -1.0 -1.4 68 2.0 S 15 19 8 10 1009.6 - 0.0
25/06:30am 3.7 -1.0 -1.5 69 1.9 S 13 20 7 11 1009.2 - 0.0
25/06:00am 3.4 -1.3 -1.9 68 1.9 S 13 17 7 9 1008.9 1009.3 0.0
25/05:30am 2.3 -2.0 -1.3 77 1.3 S 11 13 6 7 1008.5 - 0.0
25/05:00am 3.1 -1.2 -1.9 70 1.8 S 11 13 6 7 1008.3 - 0.0
25/04:30am 3.0 -0.5 -1.7 71 1.7 S 7 9 4 5 1008.2 - 0.0
25/04:00am 3.4 -0.8 -1.2 72 1.7 S 11 13 6 7 1008.1 - 0.0
25/03:30am 3.6 -0.3 -1.3 70 1.8 S 9 13 5 7 1008.0 - 0.0
25/03:00am 3.2 -0.2 -0.5 77 1.4 S 7 9 4 5 1008.1 1008.5 0.0
25/02:30am 2.8 -0.9 -0.1 81 1.1 S 9 11 5 6 1008.1 - 0.0
25/02:00am 3.0 -1.4 0.4 83 1.0 SSE 13 15 7 8 1008.2 - 0.0
25/01:30am 3.4 -0.2 0.8 83 1.0 SSE 9 11 5 6 1008.3 - 0.0
25/01:00am 3.2 -0.4 0.6 83 1.0 S 9 11 5 6 1008.6 - 0.0
25/12:30am 2.9 1.0 0.5 84 0.9 CALM 0 0 0 0 1008.8 - 0.0
25/12:00am 4.0 2.2 1.5 84 1.0 CALM 0 0 0 0 1008.9 1009.3 0.0
 
Date/Time
EST
Temp
°C
App
Temp
°C
Dew
Point
°C
Rel
Hum
%
Delta-T
°C
Wind Press
QNH
hPa
Press
MSL
hPa
Rain since
9am
mm
Dir  Spd
km/h
Gust
km/h
Spd
kts
Gust
kts
24/11:30pm 4.3 0.4 1.3 81 1.2 S 11 13 6 7 1008.9 - 0.0
24/11:00pm 5.0 0.8 1.5 78 1.4 SSE 13 17 7 9 1008.9 - 0.0
24/10:30pm 4.0 0.6 2.0 87 0.8 SSE 9 11 5 6 1009.0 - 0.0
24/10:00pm 4.2 0.8 2.0 85 0.9 S 9 11 5 6 1009.2 - 0.0
24/09:30pm 4.7 1.5 3.0 89 0.7 SSE 9 13 5 7 1009.5 - 0.0
24/09:00pm 5.8 2.6 3.2 83 1.1 SSW 9 15 5 8 1009.7 1010.1 0.0
24/08:30pm 6.0 3.5 3.7 85 1.0 S 6 7 3 4 1009.8 - 0.0
24/08:00pm 6.5 2.8 4.2 85 1.0 SSE 13 17 7 9 1010.0 - 0.0
24/07:30pm 6.6 3.5 3.8 82 1.2 SSE 9 11 5 6 1010.0 - 0.0
24/07:00pm 7.0 4.3 3.5 78 1.5 S 7 11 4 6 1010.0 - 0.0
24/06:30pm 7.4 4.8 4.0 79 1.5 SW 7 11 4 6 1010.1 - 0.0

Other Formats:

Comma delimited format used in spreadsheet applications
http://www.bom.gov.au/fwo/IDT60801/IDT60801.94972.axf

JavaScript Object Notation format (JSON) in row-major order
http://www.bom.gov.au/fwo/IDT60801/IDT60801.94972.json